Scotby, United Kingdom
Current Conditions -  °F | °C
As of 4:50 AM on Monday 20 Oct 2014 (Local Time) from EGOM Reporting Station
Broken Clouds Broken Clouds  
Wind Chill: 42°   Ceiling: 200
Heat Index: 48°   Visibility: 6mi
Dew Point: 48°   Wind: 18mph
Humidity: 100%   Direction: 250°WSW
Pressure: 29.77"   Gusts: NA
Location:  54.89°N, 2.87°W
Report Text: EGOM 200350Z AUTO 25016KT 9999 BKN002/// SCT010/// BKN050/// 09/09 Q1008 RERA
Loading
Personal Weather Stations






























Interactive Weather Map New forecast layout! Learn more

10-Day Weather Forecast

Advertisements
Track Severe Weather on mobile